createdAt,value
2019-04-10T00:00:35.159Z,9.27
2019-04-10T00:03:08.183Z,9.21
2019-04-10T00:05:38.996Z,9.22
2019-04-10T00:08:08.894Z,9.19
2019-04-10T00:10:38.807Z,9.16
2019-04-10T00:13:08.601Z,9.15
2019-04-10T00:15:38.527Z,9.09
2019-04-10T00:18:09.408Z,9.01
2019-04-10T00:20:39.397Z,8.97
2019-04-10T00:23:09.186Z,8.70
2019-04-10T00:25:39.262Z,8.97
2019-04-10T00:28:09.526Z,8.91
2019-04-10T00:30:39.564Z,8.82
2019-04-10T00:33:10.200Z,8.74
2019-04-10T00:35:40.404Z,8.72
2019-04-10T00:38:10.386Z,8.75
2019-04-10T00:40:40.233Z,8.72
2019-04-10T00:43:10.852Z,8.65
2019-04-10T00:45:41.883Z,8.66
2019-04-10T00:48:12.148Z,8.76
2019-04-10T00:50:44.918Z,8.77
2019-04-10T00:53:17.274Z,8.79
2019-04-10T00:55:48.076Z,8.86
2019-04-10T00:58:20.483Z,8.81
2019-04-10T01:00:51.756Z,8.83
2019-04-10T01:03:40.679Z,8.79
2019-04-10T01:06:11.493Z,8.75
2019-04-10T01:08:44.766Z,8.66
2019-04-10T01:11:15.141Z,8.64
2019-04-10T01:13:47.095Z,8.57
2019-04-10T01:16:19.540Z,8.47
2019-04-10T01:18:49.482Z,8.45
2019-04-10T01:21:20.875Z,8.46
2019-04-10T01:23:55.674Z,8.38
2019-04-10T01:26:28.327Z,8.38
2019-04-10T01:29:01.685Z,8.39
2019-04-10T01:31:33.776Z,8.37
2019-04-10T01:34:05.937Z,8.34
2019-04-10T01:36:35.591Z,8.34
2019-04-10T01:39:10.449Z,8.29
2019-04-10T01:41:41.967Z,8.24
2019-04-10T01:44:11.953Z,8.20
2019-04-10T01:46:45.044Z,8.17
2019-04-10T01:49:15.674Z,8.12
2019-04-10T01:51:47.726Z,8.11
2019-04-10T01:54:20.186Z,8.12
2019-04-10T01:56:50.192Z,8.10
2019-04-10T01:59:23.604Z,8.07
2019-04-10T02:01:58.932Z,8.05
2019-04-10T02:04:30.980Z,7.94
2019-04-10T02:07:00.849Z,7.77
2019-04-10T02:09:31.777Z,7.76
2019-04-10T02:12:02.095Z,7.77
2019-04-10T02:14:33.730Z,7.71
2019-04-10T02:17:04.513Z,7.61
2019-04-10T02:19:36.388Z,7.53
2019-04-10T02:22:06.565Z,7.48
2019-04-10T02:24:37.279Z,7.51
2019-04-10T02:27:09.847Z,7.63
2019-04-10T02:29:42.047Z,7.62
2019-04-10T02:32:14.429Z,7.53
2019-04-10T02:34:46.818Z,7.41
2019-04-10T02:37:17.117Z,7.44
2019-04-10T02:39:52.965Z,7.54
2019-04-10T02:42:20.864Z,7.52
2019-04-10T02:44:52.787Z,7.51
2019-04-10T02:47:23.946Z,7.56
2019-04-10T02:49:54.523Z,7.53
2019-04-10T02:52:26.131Z,7.50
2019-04-10T02:54:57.703Z,7.45
2019-04-10T02:57:27.684Z,7.50
2019-04-10T02:59:57.664Z,7.48
2019-04-10T03:02:28.953Z,7.43
2019-04-10T03:04:59.485Z,7.40
2019-04-10T03:07:29.291Z,7.36
2019-04-10T03:10:08.873Z,7.43
2019-04-10T03:12:32.163Z,7.45
2019-04-10T03:15:03.467Z,7.58
2019-04-10T03:17:34.838Z,7.47
2019-04-10T03:20:07.813Z,7.40
2019-04-10T03:22:38.194Z,7.52
2019-04-10T03:25:08.922Z,7.44
2019-04-10T03:27:38.799Z,7.41
2019-04-10T03:30:12.575Z,7.29
2019-04-10T03:32:48.050Z,7.33
2019-04-10T03:35:28.015Z,7.41
2019-04-10T03:37:57.938Z,7.47
2019-04-10T03:40:27.749Z,7.41
2019-04-10T03:42:59.050Z,7.36
2019-04-10T03:45:30.751Z,7.34
2019-04-10T03:48:02.026Z,7.35
2019-04-10T03:50:34.005Z,7.32
2019-04-10T03:53:03.883Z,7.38
2019-04-10T03:55:34.844Z,7.39
2019-04-10T03:58:04.650Z,7.40
2019-04-10T04:00:36.314Z,7.51
2019-04-10T04:03:06.481Z,7.59
2019-04-10T04:05:37.096Z,7.69
2019-04-10T04:08:07.573Z,7.74
2019-04-10T04:10:37.526Z,7.77
2019-04-10T04:13:07.591Z,7.76
2019-04-10T04:15:37.935Z,7.75
2019-04-10T04:18:08.789Z,7.76
2019-04-10T04:20:41.329Z,7.80
2019-04-10T04:23:11.687Z,7.81
2019-04-10T04:25:42.778Z,7.79
2019-04-10T04:28:12.948Z,7.73
2019-04-10T04:30:42.684Z,7.69
2019-04-10T04:33:13.248Z,7.65
2019-04-10T04:35:43.430Z,7.65
2019-04-10T04:38:14.139Z,7.63
2019-04-10T04:40:44.268Z,7.61
2019-04-10T04:43:14.623Z,7.63
2019-04-10T04:45:44.435Z,7.55
2019-04-10T04:48:14.576Z,7.54
2019-04-10T04:50:45.713Z,7.57
2019-04-10T04:53:16.303Z,7.63
2019-04-10T04:55:47.060Z,7.62
2019-04-10T04:58:20.269Z,7.72
2019-04-10T05:00:50.819Z,7.60
2019-04-10T05:03:20.881Z,7.54
2019-04-10T05:05:50.689Z,7.58
2019-04-10T05:08:21.817Z,7.54
2019-04-10T05:10:54.214Z,7.59
2019-04-10T05:13:24.386Z,7.59
2019-04-10T05:15:55.393Z,7.59
2019-04-10T05:18:25.433Z,7.54
2019-04-10T05:20:55.197Z,7.59
2019-04-10T05:23:24.945Z,7.68
2019-04-10T05:25:54.725Z,7.65
2019-04-10T05:28:24.799Z,7.69
2019-04-10T05:30:55.457Z,7.78
2019-04-10T05:33:26.778Z,7.78
2019-04-10T05:35:57.052Z,6.92
2019-04-10T05:38:27.129Z,7.68
2019-04-10T05:40:57.189Z,7.74
2019-04-10T05:43:28.093Z,7.99
2019-04-10T05:45:57.973Z,8.44
2019-04-10T05:48:29.253Z,8.58
2019-04-10T05:51:03.061Z,8.60
2019-04-10T05:53:30.479Z,8.61
2019-04-10T05:56:01.428Z,8.77
2019-04-10T05:58:33.193Z,8.74
2019-04-10T06:01:05.428Z,8.71
2019-04-10T06:03:40.843Z,8.92
2019-04-10T06:06:10.724Z,9.02
2019-04-10T06:08:41.476Z,9.07
2019-04-10T06:11:15.206Z,9.03
2019-04-10T06:13:48.365Z,8.85
2019-04-10T06:16:19.652Z,8.73
2019-04-10T06:18:49.531Z,8.55
2019-04-10T06:21:20.985Z,8.49
2019-04-10T06:23:52.382Z,8.30
2019-04-10T06:26:25.770Z,8.18
2019-04-10T06:28:58.975Z,8.08
2019-04-10T06:31:28.951Z,7.98
2019-04-10T06:34:00.419Z,7.91
2019-04-10T06:36:31.803Z,7.95
2019-04-10T06:39:02.678Z,7.97
2019-04-10T06:41:38.953Z,7.98
2019-04-10T06:44:09.863Z,7.82
2019-04-10T06:46:40.708Z,7.85
2019-04-10T06:49:12.270Z,7.97
2019-04-10T06:51:45.133Z,8.03
2019-04-10T06:54:17.478Z,8.02
2019-04-10T06:56:48.548Z,7.97
2019-04-10T06:59:18.742Z,8.02
2019-04-10T07:01:53.367Z,8.05
2019-04-10T07:04:24.221Z,8.14
2019-04-10T07:06:59.373Z,7.95
2019-04-10T07:09:27.106Z,7.94
2019-04-10T07:12:00.939Z,8.07
2019-04-10T07:14:29.644Z,8.16
2019-04-10T07:17:05.046Z,8.26
2019-04-10T07:19:34.488Z,8.32
2019-04-10T07:22:08.857Z,8.21
2019-04-10T07:24:41.194Z,8.16
2019-04-10T07:27:11.974Z,8.11
2019-04-10T07:29:44.609Z,8.12
2019-04-10T07:32:16.899Z,8.13
2019-04-10T07:34:48.736Z,8.10
2019-04-10T07:37:23.788Z,8.09
2019-04-10T07:39:52.997Z,8.11
2019-04-10T07:42:31.226Z,8.08
2019-04-10T07:44:58.538Z,8.17
2019-04-10T07:47:31.766Z,8.14
2019-04-10T07:50:02.289Z,8.20
2019-04-10T07:52:34.996Z,8.13
2019-04-10T07:55:06.591Z,8.13
2019-04-10T07:57:44.702Z,8.18
2019-04-10T08:00:16.030Z,8.23
2019-04-10T08:02:49.142Z,8.14
2019-04-10T08:05:23.401Z,8.13
2019-04-10T08:07:55.968Z,8.08
2019-04-10T08:10:26.377Z,7.92
2019-04-10T08:12:56.532Z,7.89
2019-04-10T08:15:27.364Z,7.91
2019-04-10T08:17:58.196Z,8.04
2019-04-10T08:20:30.565Z,8.07
2019-04-10T08:23:01.497Z,8.24
2019-04-10T08:25:33.264Z,8.22
2019-04-10T08:28:03.238Z,8.52
2019-04-10T08:30:34.112Z,8.53
2019-04-10T08:33:06.230Z,8.28
2019-04-10T08:35:37.818Z,8.45
2019-04-10T08:38:07.813Z,8.66
2019-04-10T08:40:38.656Z,8.80
2019-04-10T08:43:11.828Z,8.97
2019-04-10T08:45:47.183Z,8.99
2019-04-10T08:48:15.728Z,8.99
2019-04-10T08:50:46.251Z,9.09
2019-04-10T08:53:16.037Z,9.18
2019-04-10T08:55:49.010Z,9.19
2019-04-10T08:58:18.885Z,9.21
2019-04-10T09:00:51.472Z,9.26
2019-04-10T09:03:24.619Z,9.21
2019-04-10T09:05:56.467Z,9.27
2019-04-10T09:08:29.396Z,9.25
2019-04-10T09:11:00.964Z,9.17
2019-04-10T09:13:30.854Z,9.00
2019-04-10T09:16:03.107Z,8.91
2019-04-10T09:18:35.274Z,8.83
2019-04-10T09:21:05.561Z,8.70
2019-04-10T09:23:45.557Z,8.64
2019-04-10T09:26:09.539Z,8.63
2019-04-10T09:28:42.435Z,8.53
2019-04-10T09:31:12.234Z,8.42
2019-04-10T09:33:43.483Z,8.42
2019-04-10T09:36:13.558Z,8.50
2019-04-10T09:38:44.152Z,8.44
2019-04-10T09:41:17.615Z,8.42
2019-04-10T09:43:50.812Z,8.46
2019-04-10T09:46:23.037Z,8.55
2019-04-10T09:48:53.436Z,8.64
2019-04-10T09:51:25.631Z,8.71
2019-04-10T09:53:55.563Z,8.77
2019-04-10T09:56:27.625Z,8.82
2019-04-10T09:58:58.745Z,8.82
2019-04-10T10:01:33.624Z,8.73
2019-04-10T10:04:04.738Z,8.64
2019-04-10T10:06:36.707Z,8.40
2019-04-10T10:09:08.412Z,8.36
2019-04-10T10:11:39.887Z,8.23
2019-04-10T10:14:10.377Z,8.32
2019-04-10T10:16:42.134Z,8.35
2019-04-10T10:19:14.092Z,8.36
2019-04-10T10:21:48.319Z,8.37
2019-04-10T10:24:22.541Z,8.50
2019-04-10T10:26:54.031Z,8.46
2019-04-10T10:29:24.526Z,8.39
2019-04-10T10:31:58.384Z,8.47
2019-04-10T10:34:30.285Z,8.47
2019-04-10T10:37:03.839Z,8.41
2019-04-10T10:39:34.919Z,8.39
2019-04-10T10:42:05.499Z,8.41
2019-04-10T10:44:36.332Z,8.33
2019-04-10T10:47:08.237Z,8.33
2019-04-10T10:49:40.163Z,8.32
2019-04-10T10:52:11.144Z,8.35
2019-04-10T10:54:45.937Z,8.19
2019-04-10T10:57:15.759Z,8.21
2019-04-10T10:59:49.571Z,8.20
2019-04-10T11:02:21.893Z,8.28
2019-04-10T11:04:51.864Z,8.31
2019-04-10T11:07:24.635Z,8.23
2019-04-10T11:09:57.165Z,8.25
2019-04-10T11:12:30.495Z,8.34
2019-04-10T11:15:03.665Z,8.36
2019-04-10T11:17:35.712Z,8.33
2019-04-10T11:20:10.196Z,8.30
2019-04-10T11:22:44.930Z,8.29
2019-04-10T11:25:22.058Z,8.20
2019-04-10T11:27:56.471Z,8.20
2019-04-10T11:30:28.767Z,8.31
2019-04-10T11:33:00.059Z,8.40
2019-04-10T11:35:31.663Z,8.47
2019-04-10T11:38:03.438Z,8.47
2019-04-10T11:40:36.534Z,8.37
2019-04-10T11:43:10.085Z,8.24
2019-04-10T11:45:45.495Z,8.18
2019-04-10T11:48:16.342Z,8.31
2019-04-10T11:50:46.744Z,8.34
2019-04-10T11:53:19.098Z,8.43
2019-04-10T11:55:53.666Z,8.51
2019-04-10T11:58:25.214Z,8.56
2019-04-10T12:00:58.062Z,8.66
2019-04-10T12:03:28.293Z,8.72
2019-04-10T12:06:04.351Z,8.81
2019-04-10T12:09:04.349Z,8.92
2019-04-10T12:11:13.669Z,9.00
2019-04-10T12:13:42.740Z,9.00
2019-04-10T12:16:12.851Z,8.85
2019-04-10T12:18:43.648Z,8.85
2019-04-10T12:21:13.876Z,9.02
2019-04-10T12:23:45.250Z,9.11
2019-04-10T12:26:16.049Z,9.05
2019-04-10T12:28:46.480Z,9.00
2019-04-10T12:31:17.630Z,8.96
2019-04-10T12:33:48.385Z,8.98
2019-04-10T12:36:18.389Z,9.00
2019-04-10T12:38:49.840Z,9.05
2019-04-10T12:41:23.454Z,8.99
2019-04-10T12:43:53.685Z,8.96
2019-04-10T12:46:24.443Z,8.91
2019-04-10T12:48:55.133Z,9.01
2019-04-10T12:51:27.761Z,8.91
2019-04-10T12:54:00.988Z,8.75
2019-04-10T12:56:32.469Z,8.74
2019-04-10T12:59:05.465Z,8.80
2019-04-10T13:01:36.939Z,8.73
2019-04-10T13:04:09.035Z,8.72
2019-04-10T13:06:42.236Z,8.82
2019-04-10T13:09:13.419Z,8.70
2019-04-10T13:11:46.928Z,8.61
2019-04-10T13:14:17.547Z,8.47
2019-04-10T13:16:47.895Z,8.69
2019-04-10T13:19:18.789Z,8.82
2019-04-10T13:21:51.654Z,8.76
2019-04-10T13:24:23.763Z,8.93
2019-04-10T13:26:56.516Z,9.05
2019-04-10T13:29:32.161Z,8.98
2019-04-10T13:32:08.160Z,9.06
2019-04-10T13:34:43.617Z,9.01
2019-04-10T13:37:16.148Z,9.16
2019-04-10T13:39:46.819Z,9.22
2019-04-10T13:42:17.257Z,9.02
2019-04-10T13:44:48.676Z,9.01
2019-04-10T13:47:21.781Z,9.01
2019-04-10T13:49:54.779Z,8.91
2019-04-10T13:52:25.871Z,9.06
2019-04-10T13:54:56.426Z,9.14
2019-04-10T13:57:28.686Z,9.03
2019-04-10T13:59:59.501Z,9.05
2019-04-10T14:02:32.244Z,9.28
2019-04-10T14:05:05.320Z,9.35
2019-04-10T14:07:37.024Z,9.56
2019-04-10T14:10:08.349Z,9.41
2019-04-10T14:12:38.956Z,9.54
2019-04-10T14:15:09.884Z,9.63
2019-04-10T14:17:41.750Z,9.54
2019-04-10T14:20:13.143Z,9.59
2019-04-10T14:23:02.061Z,9.91
2019-04-10T14:25:42.853Z,9.97
2019-04-10T14:28:13.539Z,9.73
2019-04-10T14:30:45.381Z,9.76
2019-04-10T14:33:16.342Z,9.76
2019-04-10T14:35:45.954Z,9.69
2019-04-10T14:38:19.030Z,9.81
2019-04-10T14:40:50.129Z,9.92
2019-04-10T14:43:21.606Z,10.08
2019-04-10T14:45:54.038Z,9.98
2019-04-10T14:48:26.164Z,9.92
2019-04-10T14:50:59.834Z,9.88
2019-04-10T14:53:33.249Z,9.92
2019-04-10T14:56:04.048Z,9.88
2019-04-10T14:58:36.877Z,9.99
2019-04-10T15:01:09.885Z,9.84
2019-04-10T15:03:40.905Z,9.68
2019-04-10T15:06:13.189Z,9.70
2019-04-10T15:08:45.992Z,9.80
2019-04-10T15:11:16.303Z,9.87
2019-04-10T15:13:47.045Z,9.91
2019-04-10T15:16:20.919Z,10.02
2019-04-10T15:18:52.057Z,9.76
2019-04-10T15:21:22.859Z,9.61
2019-04-10T15:23:55.231Z,9.50
2019-04-10T15:26:26.074Z,9.58
2019-04-10T15:28:56.220Z,9.85
2019-04-10T15:31:28.805Z,9.72
2019-04-10T15:34:01.622Z,9.60
2019-04-10T15:36:34.039Z,9.51
2019-04-10T15:39:06.567Z,9.52
2019-04-10T15:41:36.561Z,9.56
2019-04-10T15:44:07.942Z,9.57
2019-04-10T15:46:39.182Z,9.61
2019-04-10T15:49:13.219Z,9.53
2019-04-10T15:51:43.603Z,9.49
2019-04-10T15:54:15.939Z,9.47
2019-04-10T15:56:48.138Z,9.42
2019-04-10T15:59:20.183Z,9.47
2019-04-10T16:01:52.372Z,9.55
2019-04-10T16:04:25.523Z,9.58
2019-04-10T16:06:56.294Z,9.60
2019-04-10T16:09:27.735Z,9.60
2019-04-10T16:12:16.478Z,9.62
2019-04-10T16:14:48.628Z,9.78
2019-04-10T16:17:29.612Z,9.97
2019-04-10T16:20:18.231Z,9.93
2019-04-10T16:22:56.742Z,9.82
2019-04-10T16:25:30.150Z,9.59
2019-04-10T16:28:02.230Z,9.52
2019-04-10T16:30:33.002Z,9.51
2019-04-10T16:33:04.954Z,9.49
2019-04-10T16:35:37.295Z,9.36
2019-04-10T16:38:09.686Z,9.31
2019-04-10T16:40:40.456Z,9.26
2019-04-10T16:43:11.668Z,9.17
2019-04-10T16:45:43.607Z,8.34
2019-04-10T16:48:14.796Z,9.16
2019-04-10T16:50:46.026Z,8.60
2019-04-10T16:53:18.115Z,9.05
2019-04-10T16:55:49.246Z,9.08
2019-04-10T16:58:22.040Z,9.08
2019-04-10T17:00:51.799Z,8.97
2019-04-10T17:03:21.849Z,9.03
2019-04-10T17:05:51.830Z,9.02
2019-04-10T17:08:23.761Z,8.95
2019-04-10T17:10:54.030Z,8.91
2019-04-10T17:13:24.625Z,8.88
2019-04-10T17:15:55.777Z,8.84
2019-04-10T17:18:27.398Z,8.84
2019-04-10T17:20:58.277Z,8.77
2019-04-10T17:23:30.824Z,8.68
2019-04-10T17:26:02.452Z,8.61
2019-04-10T17:28:34.452Z,8.60
2019-04-10T17:31:09.150Z,8.53
2019-04-10T17:33:39.444Z,8.49
2019-04-10T17:36:10.020Z,8.46
2019-04-10T17:38:40.180Z,8.46
2019-04-10T17:41:11.145Z,8.47
2019-04-10T17:43:43.508Z,8.50
2019-04-10T17:46:15.268Z,8.47
2019-04-10T17:48:46.392Z,8.48
2019-04-10T17:51:17.783Z,8.96
2019-04-10T17:53:49.418Z,9.08
2019-04-10T17:56:20.401Z,8.87
2019-04-10T17:58:51.970Z,8.78
2019-04-10T18:01:23.249Z,8.64
2019-04-10T18:03:58.349Z,8.62
2019-04-10T18:06:28.995Z,8.55
2019-04-10T18:08:59.277Z,8.52
2019-04-10T18:11:30.264Z,8.43
2019-04-10T18:14:00.897Z,8.35
2019-04-10T18:16:33.938Z,8.32
2019-04-10T18:19:04.417Z,8.32
2019-04-10T18:21:37.075Z,8.30
2019-04-10T18:24:08.187Z,8.28
2019-04-10T18:26:40.267Z,8.25
2019-04-10T18:29:11.367Z,8.18
2019-04-10T18:31:43.100Z,8.22
2019-04-10T18:34:15.534Z,8.22
2019-04-10T18:36:48.525Z,8.20
2019-04-10T18:39:21.923Z,8.22
2019-04-10T18:41:52.029Z,8.24
2019-04-10T18:44:22.748Z,8.19
2019-04-10T18:46:54.350Z,8.16
2019-04-10T18:49:27.404Z,8.06
2019-04-10T18:51:58.421Z,8.07
2019-04-10T18:54:31.893Z,8.10
2019-04-10T18:57:03.390Z,8.14
2019-04-10T18:59:35.002Z,8.17
2019-04-10T19:02:28.780Z,8.20
2019-04-10T19:05:03.379Z,8.18
2019-04-10T19:07:34.331Z,8.38
2019-04-10T19:10:06.754Z,9.08
2019-04-10T19:12:37.265Z,9.12
2019-04-10T19:15:08.679Z,8.83
2019-04-10T19:17:40.554Z,8.64
2019-04-10T19:20:11.183Z,8.54
2019-04-10T19:22:42.447Z,8.42
2019-04-10T19:25:16.484Z,8.40
2019-04-10T19:27:46.712Z,8.38
2019-04-10T19:30:33.623Z,8.23
2019-04-10T19:33:03.846Z,8.18
2019-04-10T19:35:33.725Z,8.10
2019-04-10T19:38:05.585Z,8.04
2019-04-10T19:40:36.900Z,7.97
2019-04-10T19:43:08.542Z,7.96
2019-04-10T19:45:39.765Z,7.94
2019-04-10T19:48:12.898Z,7.96
2019-04-10T19:50:43.792Z,7.96
2019-04-10T19:53:15.100Z,7.94
2019-04-10T19:55:46.774Z,7.92
2019-04-10T19:58:17.685Z,7.89
2019-04-10T20:00:49.017Z,7.91
2019-04-10T20:03:23.660Z,7.90
2019-04-10T20:05:55.556Z,7.92
2019-04-10T20:08:25.882Z,7.87
2019-04-10T20:10:58.175Z,7.90
2019-04-10T20:13:28.412Z,7.83
2019-04-10T20:16:00.747Z,7.83
2019-04-10T20:18:30.793Z,7.85
2019-04-10T20:21:03.715Z,7.83
2019-04-10T20:23:34.153Z,7.87
2019-04-10T20:26:07.140Z,7.86
2019-04-10T20:28:38.762Z,7.88
2019-04-10T20:31:10.669Z,7.91
2019-04-10T20:33:41.014Z,7.95
2019-04-10T20:36:12.953Z,7.94
2019-04-10T20:38:43.065Z,7.92
2019-04-10T20:41:16.569Z,7.90
2019-04-10T20:43:47.047Z,7.94
2019-04-10T20:46:18.091Z,7.99
2019-04-10T20:48:49.486Z,7.98
2019-04-10T20:51:20.736Z,7.94
2019-04-10T20:53:56.046Z,7.88
2019-04-10T20:56:26.433Z,7.83
2019-04-10T20:58:59.337Z,7.83
2019-04-10T21:01:31.000Z,7.79
2019-04-10T21:04:03.049Z,7.76
2019-04-10T21:06:36.416Z,7.76
2019-04-10T21:09:09.876Z,7.70
2019-04-10T21:11:41.912Z,7.71
2019-04-10T21:14:13.715Z,7.56
2019-04-10T21:16:47.674Z,7.53
2019-04-10T21:19:19.062Z,7.51
2019-04-10T21:21:49.574Z,7.49
2019-04-10T21:24:21.470Z,7.52
2019-04-10T21:26:52.536Z,7.51
2019-04-10T21:29:34.335Z,7.49
2019-04-10T21:32:08.032Z,7.50
2019-04-10T21:34:40.592Z,7.46
2019-04-10T21:37:11.326Z,7.44
2019-04-10T21:39:41.560Z,7.43
2019-04-10T21:42:19.518Z,7.43
2019-04-10T21:44:43.100Z,7.43
2019-04-10T21:47:13.168Z,7.38
2019-04-10T21:49:44.158Z,7.30
2019-04-10T21:52:14.350Z,7.32
2019-04-10T21:54:49.529Z,7.36
2019-04-10T21:57:16.066Z,7.40
2019-04-10T21:59:45.876Z,7.36
2019-04-10T22:02:15.739Z,7.34
2019-04-10T22:04:45.824Z,7.34
2019-04-10T22:07:34.346Z,7.33
2019-04-10T22:10:07.743Z,7.33
2019-04-10T22:12:43.809Z,7.27
2019-04-10T22:15:10.795Z,7.24
2019-04-10T22:17:40.849Z,7.26
2019-04-10T22:20:11.737Z,7.32
2019-04-10T22:22:41.629Z,7.29
2019-04-10T22:25:11.646Z,7.25
2019-04-10T22:27:43.546Z,7.26
2019-04-10T22:30:15.237Z,7.29
2019-04-10T22:32:46.942Z,7.28
2019-04-10T22:35:19.448Z,7.29
2019-04-10T22:37:57.751Z,7.30
2019-04-10T22:40:33.946Z,7.28
2019-04-10T22:43:09.601Z,7.26
2019-04-10T22:45:41.906Z,7.40
2019-04-10T22:48:12.423Z,7.32
2019-04-10T22:50:42.935Z,7.25
2019-04-10T22:53:13.056Z,7.19
2019-04-10T22:55:44.476Z,7.28
2019-04-10T22:58:17.000Z,7.29
2019-04-10T23:00:48.483Z,7.46
2019-04-10T23:03:20.725Z,7.45
2019-04-10T23:05:51.211Z,7.48
2019-04-10T23:08:20.990Z,7.32
2019-04-10T23:10:53.527Z,7.38
2019-04-10T23:13:23.955Z,7.37
2019-04-10T23:15:54.322Z,7.27
2019-04-10T23:18:24.084Z,7.20
2019-04-10T23:20:54.268Z,7.21
2019-04-10T23:23:27.339Z,7.24
2019-04-10T23:26:01.012Z,7.29
2019-04-10T23:28:33.749Z,7.35
2019-04-10T23:31:05.984Z,7.38
2019-04-10T23:33:36.472Z,7.37
2019-04-10T23:36:07.474Z,7.37
2019-04-10T23:38:37.765Z,7.40
2019-04-10T23:41:07.505Z,7.43
2019-04-10T23:43:41.927Z,7.41
2019-04-10T23:46:12.760Z,7.38
2019-04-10T23:48:46.702Z,7.36
2019-04-10T23:51:18.991Z,7.32
2019-04-10T23:53:51.016Z,7.23
2019-04-10T23:56:21.832Z,7.16
2019-04-10T23:58:54.369Z,7.15
